createdAt,value
2019-03-02T00:00:41.889Z,9.33
2019-03-02T00:03:10.427Z,11.83
2019-03-02T00:05:39.134Z,7.27
2019-03-02T00:08:07.655Z,8.03
2019-03-02T00:10:36.210Z,6.23
2019-03-02T00:13:07.505Z,6.97
2019-03-02T00:15:44.994Z,9.27
2019-03-02T00:18:13.537Z,7.97
2019-03-02T00:20:42.060Z,6.93
2019-03-02T00:23:10.602Z,7.27
2019-03-02T00:25:39.194Z,7.80
2019-03-02T00:28:07.724Z,9.57
2019-03-02T00:30:36.270Z,7.90
2019-03-02T00:33:04.842Z,10.20
2019-03-02T00:35:33.485Z,6.70
2019-03-02T00:38:04.863Z,5.87
2019-03-02T00:40:33.866Z,5.60
2019-03-02T00:43:02.501Z,5.83
2019-03-02T00:45:31.309Z,5.83
2019-03-02T00:47:59.853Z,6.50
2019-03-02T00:50:28.381Z,6.13
2019-03-02T00:52:59.118Z,5.77
2019-03-02T00:55:28.508Z,5.40
2019-03-02T00:57:57.609Z,5.93
2019-03-02T01:00:26.112Z,5.97
2019-03-02T01:02:54.714Z,5.53
2019-03-02T01:05:23.306Z,5.77
2019-03-02T01:07:51.952Z,5.43
2019-03-02T01:10:22.732Z,5.20
2019-03-02T01:12:50.836Z,4.93
2019-03-02T01:15:19.748Z,5.53
2019-03-02T01:17:48.270Z,4.80
2019-03-02T01:20:16.873Z,5.37
2019-03-02T01:22:48.327Z,5.67
2019-03-02T01:25:16.343Z,4.83
2019-03-02T01:27:45.029Z,5.23
2019-03-02T01:30:18.620Z,7.20
2019-03-02T01:32:48.948Z,5.10
2019-03-02T01:35:20.308Z,5.53
2019-03-02T01:37:47.758Z,5.83
2019-03-02T01:40:16.723Z,5.23
2019-03-02T01:42:45.349Z,5.47
2019-03-02T01:45:16.240Z,6.97
2019-03-02T01:47:50.530Z,7.33
2019-03-02T01:50:16.938Z,7.77
2019-03-02T01:52:45.771Z,6.80
2019-03-02T01:55:15.916Z,7.87
2019-03-02T01:57:44.688Z,7.33
2019-03-02T02:00:20.570Z,8.30
2019-03-02T02:02:49.106Z,8.03
2019-03-02T02:05:17.878Z,6.50
2019-03-02T02:07:46.533Z,7.77
2019-03-02T02:10:15.493Z,7.03
2019-03-02T02:12:44.182Z,7.57
2019-03-02T02:15:20.450Z,9.73
2019-03-02T02:17:49.677Z,8.17
2019-03-02T02:20:19.537Z,6.33
2019-03-02T02:22:48.225Z,6.07
2019-03-02T02:25:19.212Z,7.70
2019-03-02T02:27:47.797Z,9.37
2019-03-02T02:30:29.031Z,8.30
2019-03-02T02:33:04.262Z,9.27
2019-03-02T02:35:28.161Z,8.70
2019-03-02T02:37:56.777Z,8.50
2019-03-02T02:40:25.481Z,7.33
2019-03-02T02:42:54.022Z,8.40
2019-03-02T02:45:24.237Z,8.00
2019-03-02T02:47:54.367Z,12.63
2019-03-02T02:50:29.330Z,8.93
2019-03-02T02:52:53.379Z,10.57
2019-03-02T02:55:21.975Z,8.83
2019-03-02T02:57:50.594Z,8.33
2019-03-02T03:00:24.190Z,9.33
2019-03-02T03:02:52.957Z,10.60
2019-03-02T03:05:21.717Z,14.30
2019-03-02T03:07:55.891Z,10.13
2019-03-02T03:10:27.838Z,10.23
2019-03-02T03:12:56.699Z,12.10
2019-03-02T03:15:36.083Z,10.70
2019-03-02T03:17:58.330Z,11.57
2019-03-02T03:20:27.043Z,13.23
2019-03-02T03:22:55.636Z,11.80
2019-03-02T03:25:34.417Z,13.30
2019-03-02T03:28:02.959Z,12.77
2019-03-02T03:30:38.812Z,14.27
2019-03-02T03:33:01.724Z,12.93
2019-03-02T03:35:30.327Z,13.70
2019-03-02T03:37:58.946Z,14.07
2019-03-02T03:40:27.489Z,13.80
2019-03-02T03:43:02.416Z,11.20
2019-03-02T03:45:28.319Z,10.10
2019-03-02T03:47:56.813Z,12.77
2019-03-02T03:50:25.354Z,12.20
2019-03-02T03:52:53.945Z,12.90
2019-03-02T03:55:25.040Z,14.03
2019-03-02T03:57:55.428Z,14.80
2019-03-02T04:00:23.257Z,11.23
2019-03-02T04:02:51.784Z,10.57
2019-03-02T04:05:20.458Z,15.10
2019-03-02T04:07:51.548Z,13.30
2019-03-02T04:10:25.687Z,11.83
2019-03-02T04:12:49.675Z,15.70
2019-03-02T04:15:18.569Z,17.40
2019-03-02T04:17:47.717Z,16.67
2019-03-02T04:20:21.849Z,17.43
2019-03-02T04:22:51.906Z,15.63
2019-03-02T04:25:29.906Z,15.37
2019-03-02T04:27:58.527Z,17.07
2019-03-02T04:30:31.310Z,17.70
2019-03-02T04:33:01.674Z,19.27
2019-03-02T04:35:29.968Z,18.80
2019-03-02T04:38:00.795Z,19.93
2019-03-02T04:40:29.103Z,21.03
2019-03-02T04:42:57.865Z,18.23
2019-03-02T04:45:26.462Z,17.47
2019-03-02T04:47:55.133Z,15.83
2019-03-02T04:50:26.767Z,17.20
2019-03-02T04:52:53.926Z,17.87
2019-03-02T04:55:22.447Z,18.30
2019-03-02T04:57:51.059Z,14.53
2019-03-02T05:00:19.729Z,16.40
2019-03-02T05:02:51.747Z,14.40
2019-03-02T05:05:23.605Z,16.30
2019-03-02T05:07:52.172Z,17.73
2019-03-02T05:10:20.766Z,16.03
2019-03-02T05:12:49.808Z,17.23
2019-03-02T05:15:19.547Z,18.90
2019-03-02T05:17:48.346Z,14.83
2019-03-02T05:20:16.874Z,14.57
2019-03-02T05:22:45.505Z,17.10
2019-03-02T05:25:24.125Z,19.30
2019-03-02T05:27:52.674Z,15.70
2019-03-02T05:30:21.289Z,15.50
2019-03-02T05:32:51.223Z,16.50
2019-03-02T05:35:20.060Z,15.53
2019-03-02T05:37:48.589Z,17.57
2019-03-02T05:40:17.187Z,15.77
2019-03-02T05:42:51.523Z,13.67
2019-03-02T05:45:16.294Z,16.60
2019-03-02T05:47:44.973Z,18.80
2019-03-02T05:50:16.798Z,16.00
2019-03-02T05:52:45.481Z,16.57
2019-03-02T05:55:17.898Z,17.97
2019-03-02T05:57:44.626Z,15.57
2019-03-02T06:00:23.533Z,18.00
2019-03-02T06:02:52.573Z,17.17
2019-03-02T06:05:21.197Z,15.37
2019-03-02T06:07:49.736Z,15.10
2019-03-02T06:10:21.786Z,15.17
2019-03-02T06:12:51.598Z,14.10
2019-03-02T06:15:18.894Z,15.90
2019-03-02T06:17:47.451Z,16.97
2019-03-02T06:20:16.070Z,15.27
2019-03-02T06:22:44.674Z,15.73
2019-03-02T06:25:31.012Z,13.60
2019-03-02T06:27:59.616Z,14.40
2019-03-02T06:30:28.140Z,13.77
2019-03-02T06:32:56.670Z,14.33
2019-03-02T06:35:49.648Z,14.57
2019-03-02T06:38:18.530Z,15.03
2019-03-02T06:40:47.110Z,13.57
2019-03-02T06:43:17.863Z,14.23
2019-03-02T06:45:45.989Z,14.00
2019-03-02T06:48:14.544Z,14.80
2019-03-02T06:50:43.162Z,13.50
2019-03-02T06:53:11.782Z,13.13
2019-03-02T06:55:40.397Z,11.57
2019-03-02T06:58:08.913Z,13.83
2019-03-02T07:00:37.442Z,13.43
2019-03-02T07:03:06.739Z,13.80
2019-03-02T07:05:37.317Z,13.60
2019-03-02T07:08:06.095Z,13.63
2019-03-02T07:10:34.607Z,17.03
2019-03-02T07:13:04.869Z,14.90
2019-03-02T07:15:33.431Z,12.93
2019-03-02T07:18:06.434Z,16.37
2019-03-02T07:20:35.570Z,11.60
2019-03-02T07:23:04.257Z,13.17
2019-03-02T07:25:32.942Z,11.60
2019-03-02T07:28:01.918Z,10.80
2019-03-02T07:30:31.737Z,13.83
2019-03-02T07:33:00.271Z,15.40
2019-03-02T07:35:30.597Z,12.33
2019-03-02T07:37:59.217Z,12.57
2019-03-02T07:40:27.817Z,11.20
2019-03-02T07:42:59.746Z,11.47
2019-03-02T07:45:31.314Z,11.13
2019-03-02T07:48:00.276Z,10.97
2019-03-02T07:50:29.773Z,11.40
2019-03-02T07:52:58.887Z,10.10
2019-03-02T07:55:27.491Z,10.50
2019-03-02T07:57:56.026Z,10.40
2019-03-02T08:00:24.548Z,11.27
2019-03-02T08:02:53.068Z,13.20
2019-03-02T08:05:21.775Z,12.13
2019-03-02T08:07:50.301Z,10.73
2019-03-02T08:10:19.141Z,10.60
2019-03-02T08:12:47.725Z,14.30
2019-03-02T08:15:25.875Z,11.00
2019-03-02T08:17:54.627Z,11.30
2019-03-02T08:20:24.583Z,11.47
2019-03-02T08:22:53.683Z,12.53
2019-03-02T08:25:37.308Z,18.00
2019-03-02T08:28:06.748Z,17.17
2019-03-02T08:30:36.074Z,13.10
2019-03-02T08:33:04.750Z,12.97
2019-03-02T08:35:33.361Z,12.03
2019-03-02T08:38:05.301Z,12.97
2019-03-02T08:40:33.384Z,11.70
2019-03-02T08:43:01.915Z,10.23
2019-03-02T08:45:35.697Z,10.40
2019-03-02T08:48:04.881Z,11.63
2019-03-02T08:50:33.575Z,10.73
2019-03-02T08:53:02.177Z,10.83
2019-03-02T08:55:38.755Z,10.47
2019-03-02T08:58:07.341Z,10.63
2019-03-02T09:00:38.917Z,11.97
2019-03-02T09:03:06.350Z,8.73
2019-03-02T09:05:51.816Z,10.07
2019-03-02T09:08:05.285Z,11.53
2019-03-02T09:10:33.953Z,9.80
2019-03-02T09:13:02.484Z,10.50
2019-03-02T09:15:53.368Z,9.60
2019-03-02T09:18:22.342Z,8.53
2019-03-02T09:20:50.920Z,8.07
2019-03-02T09:23:19.503Z,9.60
2019-03-02T09:25:48.167Z,8.50
2019-03-02T09:28:16.835Z,5.80
2019-03-02T09:30:45.356Z,6.47
2019-03-02T09:33:13.969Z,6.40
2019-03-02T09:35:42.602Z,6.80
2019-03-02T09:38:11.140Z,5.47
2019-03-02T09:40:39.737Z,8.13
2019-03-02T09:43:08.396Z,5.27
2019-03-02T09:45:44.768Z,7.10
2019-03-02T09:48:12.519Z,6.57
2019-03-02T09:50:42.065Z,5.70
2019-03-02T09:53:10.725Z,6.30
2019-03-02T09:55:39.469Z,8.37
2019-03-02T09:58:08.059Z,6.90
2019-03-02T10:00:36.637Z,5.83
2019-03-02T10:03:05.262Z,8.30
2019-03-02T10:05:33.888Z,5.67
2019-03-02T10:08:02.473Z,4.37
2019-03-02T10:10:33.212Z,4.93
2019-03-02T10:13:01.294Z,5.13
2019-03-02T10:15:34.030Z,4.60
2019-03-02T10:18:02.700Z,7.80
2019-03-02T10:20:31.220Z,5.53
2019-03-02T10:23:02.000Z,6.37
2019-03-02T10:25:31.949Z,4.13
2019-03-02T10:28:00.329Z,6.13
2019-03-02T10:30:28.932Z,4.73
2019-03-02T10:32:57.573Z,5.70
2019-03-02T10:35:26.179Z,7.67
2019-03-02T10:37:54.795Z,4.23
2019-03-02T10:40:23.618Z,4.50
2019-03-02T10:42:52.318Z,4.90
2019-03-02T10:45:31.406Z,4.03
2019-03-02T10:48:01.606Z,3.40
2019-03-02T10:50:30.282Z,6.60
2019-03-02T10:52:58.908Z,4.40
2019-03-02T10:55:27.487Z,4.83
2019-03-02T10:57:59.077Z,6.43
2019-03-02T11:00:31.247Z,6.97
2019-03-02T11:03:05.579Z,6.27
2019-03-02T11:05:41.721Z,5.37
2019-03-02T11:08:29.458Z,6.43
2019-03-02T11:11:05.552Z,5.27
2019-03-02T11:13:47.779Z,7.57
2019-03-02T11:16:18.085Z,9.40
2019-03-02T11:18:51.178Z,8.57
2019-03-02T11:21:34.812Z,9.00
2019-03-02T11:24:13.769Z,7.20
2019-03-02T11:26:53.012Z,11.10
2019-03-02T11:29:23.285Z,7.83
2019-03-02T11:31:56.260Z,7.10
2019-03-02T11:34:30.494Z,6.37
2019-03-02T11:37:01.282Z,8.57
2019-03-02T11:39:34.170Z,7.97
2019-03-02T11:42:04.409Z,7.30
2019-03-02T11:44:37.201Z,8.00
2019-03-02T11:47:23.465Z,6.27
2019-03-02T11:49:59.422Z,8.20
2019-03-02T11:52:38.730Z,7.90
2019-03-02T11:55:28.870Z,5.97
2019-03-02T11:58:04.737Z,5.10
2019-03-02T12:00:54.140Z,5.43
2019-03-02T12:03:39.165Z,5.27
2019-03-02T12:06:20.375Z,7.40
2019-03-02T12:09:03.329Z,6.17
2019-03-02T12:11:33.585Z,6.03
2019-03-02T12:14:09.930Z,7.67
2019-03-02T12:16:49.418Z,10.00
2019-03-02T12:19:22.085Z,7.00
2019-03-02T12:22:01.447Z,9.37
2019-03-02T12:24:31.739Z,8.47
2019-03-02T12:27:11.278Z,8.27
2019-03-02T12:29:46.125Z,7.00
2019-03-02T12:32:28.144Z,8.57
2019-03-02T12:35:19.124Z,9.33
2019-03-02T12:37:52.140Z,7.43
2019-03-02T12:40:22.379Z,10.77
2019-03-02T12:42:58.409Z,8.10
2019-03-02T12:45:33.732Z,7.73
2019-03-02T12:48:09.383Z,8.13
2019-03-02T12:50:39.640Z,7.67
2019-03-02T12:53:24.586Z,6.87
2019-03-02T12:56:02.334Z,6.33
2019-03-02T12:58:44.497Z,6.70
2019-03-02T13:01:14.662Z,6.03
2019-03-02T13:03:50.784Z,5.73
2019-03-02T13:06:37.477Z,8.00
2019-03-02T13:09:22.625Z,6.67
2019-03-02T13:11:52.889Z,6.27
2019-03-02T13:14:23.086Z,5.20
2019-03-02T13:17:03.701Z,4.87
2019-03-02T13:19:36.923Z,6.17
2019-03-02T13:22:09.704Z,4.53
2019-03-02T13:24:39.874Z,4.33
2019-03-02T13:27:10.139Z,7.47
2019-03-02T13:29:40.335Z,7.47
2019-03-02T13:32:15.834Z,6.07
2019-03-02T13:35:26.991Z,6.40
2019-03-02T13:37:59.985Z,5.23
2019-03-02T13:40:33.531Z,6.07
2019-03-02T13:43:05.000Z,6.83
2019-03-02T13:45:48.468Z,4.47
2019-03-02T13:48:26.788Z,5.73
2019-03-02T13:51:00.353Z,5.47
2019-03-02T13:53:39.477Z,5.30
2019-03-02T13:56:22.183Z,5.83
2019-03-02T13:58:54.961Z,6.40
2019-03-02T14:01:42.809Z,7.33
2019-03-02T14:05:05.031Z,5.67
2019-03-02T14:07:38.485Z,7.23
2019-03-02T14:10:12.152Z,6.67
2019-03-02T14:12:57.334Z,6.37
2019-03-02T14:15:55.397Z,7.13
2019-03-02T14:18:29.637Z,11.07
2019-03-02T14:21:02.462Z,6.63
2019-03-02T14:23:36.053Z,7.97
2019-03-02T14:26:09.300Z,7.77
2019-03-02T14:28:41.005Z,7.40
2019-03-02T14:31:29.299Z,8.07
2019-03-02T14:34:15.705Z,8.07
2019-03-02T14:36:45.871Z,9.53
2019-03-02T14:39:16.214Z,9.70
2019-03-02T14:41:46.468Z,8.53
2019-03-02T14:44:25.895Z,11.00
2019-03-02T14:47:08.148Z,10.00
2019-03-02T14:49:43.046Z,10.33
2019-03-02T14:52:24.923Z,12.57
2019-03-02T14:55:11.274Z,9.30
2019-03-02T14:57:41.525Z,12.70
2019-03-02T15:00:26.693Z,11.40
2019-03-02T15:02:56.969Z,13.43
2019-03-02T15:05:27.313Z,14.30
2019-03-02T15:08:09.803Z,12.83
2019-03-02T15:10:40.053Z,12.73
2019-03-02T15:13:26.058Z,12.77
2019-03-02T15:15:58.635Z,10.77
2019-03-02T15:18:45.417Z,13.50
2019-03-02T15:21:27.623Z,10.67
2019-03-02T15:24:00.821Z,12.93
2019-03-02T15:26:30.968Z,11.90
2019-03-02T15:29:13.690Z,12.77
2019-03-02T15:31:50.950Z,12.03
2019-03-02T15:34:23.878Z,12.77
2019-03-02T15:36:54.168Z,12.53
2019-03-02T15:39:27.170Z,13.80
2019-03-02T15:42:03.321Z,13.70
2019-03-02T15:44:49.665Z,13.40
2019-03-02T15:47:22.506Z,12.17
2019-03-02T15:50:07.748Z,12.10
2019-03-02T15:52:43.892Z,11.23
2019-03-02T15:55:12.807Z,11.53
2019-03-02T15:57:49.222Z,11.73
2019-03-02T16:00:25.572Z,11.23
2019-03-02T16:02:55.825Z,12.87
2019-03-02T16:05:28.831Z,12.80
2019-03-02T16:08:05.020Z,14.23
2019-03-02T16:10:35.275Z,15.53
2019-03-02T16:13:21.089Z,13.70
2019-03-02T16:15:51.753Z,14.07
2019-03-02T16:18:38.447Z,22.70
2019-03-02T16:21:11.645Z,14.23
2019-03-02T16:23:43.584Z,13.47
2019-03-02T16:26:17.899Z,14.83
2019-03-02T16:28:48.452Z,14.27
2019-03-02T16:31:21.612Z,12.43
2019-03-02T16:33:57.982Z,11.47
2019-03-02T16:36:40.179Z,11.57
2019-03-02T16:39:24.993Z,12.13
2019-03-02T16:42:01.386Z,12.67
2019-03-02T16:44:43.740Z,12.23
2019-03-02T16:47:15.021Z,11.17
2019-03-02T16:50:00.715Z,10.53
2019-03-02T16:52:34.370Z,11.57
2019-03-02T16:55:05.998Z,13.73
2019-03-02T16:57:51.479Z,14.67
2019-03-02T17:00:24.393Z,13.13
2019-03-02T17:03:10.779Z,14.13
2019-03-02T17:05:50.315Z,12.27
2019-03-02T17:08:36.670Z,12.33
2019-03-02T17:11:07.160Z,11.60
2019-03-02T17:13:37.348Z,11.33
2019-03-02T17:16:10.921Z,13.97
2019-03-02T17:18:41.170Z,11.43
2019-03-02T17:21:20.603Z,13.20
2019-03-02T17:24:05.473Z,12.97
2019-03-02T17:26:35.709Z,11.47
2019-03-02T17:29:14.625Z,13.93
2019-03-02T17:31:44.863Z,11.83
2019-03-02T17:34:20.625Z,11.80
2019-03-02T17:36:59.743Z,13.50
2019-03-02T17:39:35.845Z,13.60
2019-03-02T17:42:15.962Z,8.77
2019-03-02T17:44:49.383Z,10.67
2019-03-02T17:47:36.948Z,11.37
2019-03-02T17:50:25.325Z,12.97
2019-03-02T17:52:55.574Z,10.77
2019-03-02T17:55:42.513Z,9.17
2019-03-02T17:58:27.956Z,10.90
2019-03-02T18:01:08.521Z,12.50
2019-03-02T18:03:55.957Z,11.80
2019-03-02T18:06:25.718Z,11.27
2019-03-02T18:08:55.937Z,11.87
2019-03-02T18:11:26.158Z,10.23
2019-03-02T18:13:59.093Z,11.37
2019-03-02T18:16:29.264Z,11.17
2019-03-02T18:18:57.923Z,9.50
2019-03-02T18:21:29.829Z,12.83
2019-03-02T18:23:59.223Z,12.30
2019-03-02T18:26:27.015Z,11.97
2019-03-02T18:28:55.709Z,12.30
2019-03-02T18:31:25.937Z,14.63
2019-03-02T18:33:56.304Z,12.37
2019-03-02T18:36:24.833Z,14.10
2019-03-02T18:38:54.905Z,17.00
2019-03-02T18:41:23.866Z,11.13
2019-03-02T18:43:52.460Z,10.30
2019-03-02T18:46:21.081Z,13.23
2019-03-02T18:48:51.260Z,9.30
2019-03-02T18:51:21.525Z,9.90
2019-03-02T18:53:51.774Z,13.20
2019-03-02T18:56:20.285Z,9.80
2019-03-02T18:58:48.830Z,11.37
2019-03-02T19:01:17.494Z,12.63
2019-03-02T19:03:46.114Z,10.97
2019-03-02T19:06:14.642Z,14.07
2019-03-02T19:08:43.261Z,11.53
2019-03-02T19:11:11.921Z,15.27
2019-03-02T19:13:40.670Z,11.77
2019-03-02T19:16:10.740Z,9.13
2019-03-02T19:18:39.343Z,10.23
2019-03-02T19:21:07.946Z,11.60
2019-03-02T19:23:36.539Z,13.33
2019-03-02T19:26:05.292Z,16.20
2019-03-02T19:28:33.805Z,12.93
2019-03-02T19:31:02.415Z,11.10
2019-03-02T19:33:31.040Z,10.50
2019-03-02T19:35:59.630Z,11.07
2019-03-02T19:38:28.140Z,10.67
2019-03-02T19:40:56.685Z,10.70
2019-03-02T19:43:25.189Z,13.53
2019-03-02T19:45:53.742Z,16.87
2019-03-02T19:48:22.252Z,10.70
2019-03-02T19:50:50.863Z,9.83
2019-03-02T19:53:19.472Z,10.47
2019-03-02T19:55:48.077Z,9.97
2019-03-02T19:58:16.681Z,10.97
2019-03-02T20:00:45.266Z,10.13
2019-03-02T20:03:13.882Z,12.53
2019-03-02T20:05:51.913Z,10.67
2019-03-02T20:08:20.517Z,16.97
2019-03-02T20:10:49.109Z,11.43
2019-03-02T20:13:17.670Z,16.67
2019-03-02T20:15:46.278Z,13.87
2019-03-02T20:18:14.864Z,15.50
2019-03-02T20:20:43.545Z,14.47
2019-03-02T20:23:12.070Z,13.13
2019-03-02T20:25:40.589Z,10.73
2019-03-02T20:28:09.253Z,13.30
2019-03-02T20:30:37.765Z,12.37
2019-03-02T20:33:06.454Z,11.47
2019-03-02T20:35:35.755Z,11.00
2019-03-02T20:38:04.721Z,11.40
2019-03-02T20:40:33.337Z,12.20
2019-03-02T20:43:01.858Z,13.33
2019-03-02T20:45:30.455Z,14.13
2019-03-02T20:47:59.074Z,11.53
2019-03-02T20:50:27.954Z,11.37
2019-03-02T20:52:56.570Z,11.40
2019-03-02T20:55:25.271Z,11.30
2019-03-02T20:57:53.910Z,11.80
2019-03-02T21:00:33.413Z,12.83
2019-03-02T21:03:02.077Z,10.30
2019-03-02T21:05:30.814Z,11.13
2019-03-02T21:07:59.396Z,10.67
2019-03-02T21:10:30.089Z,11.47
2019-03-02T21:12:58.698Z,10.00
2019-03-02T21:15:39.193Z,9.97
2019-03-02T21:18:08.662Z,11.03
2019-03-02T21:20:38.090Z,11.53
2019-03-02T21:23:06.818Z,14.40
2019-03-02T21:25:35.494Z,10.33
2019-03-02T21:28:04.645Z,11.10
2019-03-02T21:30:33.245Z,11.97
2019-03-02T21:33:01.798Z,9.93
2019-03-02T21:35:30.387Z,12.27
2019-03-02T21:37:58.901Z,9.60
2019-03-02T21:40:29.086Z,9.63
2019-03-02T21:42:57.710Z,10.73
2019-03-02T21:45:30.161Z,10.30
2019-03-02T21:47:58.702Z,9.63
2019-03-02T21:50:38.901Z,9.50
2019-03-02T21:53:07.614Z,12.87
2019-03-02T21:55:36.140Z,9.73
2019-03-02T21:58:05.066Z,9.97
2019-03-02T22:00:33.744Z,13.50
2019-03-02T22:03:02.404Z,12.10
2019-03-02T22:05:30.998Z,9.30
2019-03-02T22:07:59.613Z,9.43
2019-03-02T22:10:40.213Z,11.27
2019-03-02T22:13:08.728Z,9.77
2019-03-02T22:15:37.252Z,10.17
2019-03-02T22:18:06.235Z,10.77
2019-03-02T22:20:34.838Z,8.30
2019-03-02T22:23:03.598Z,9.17
2019-03-02T22:25:32.106Z,8.87
2019-03-02T22:28:00.684Z,8.77
2019-03-02T22:30:29.393Z,7.70
2019-03-02T22:32:58.050Z,11.23
2019-03-02T22:35:26.589Z,8.50
2019-03-02T22:37:55.104Z,8.80
2019-03-02T22:40:27.889Z,10.83
2019-03-02T22:42:56.453Z,9.37
2019-03-02T22:45:25.042Z,13.50
2019-03-02T22:47:53.589Z,9.83
2019-03-02T22:50:27.274Z,10.00
2019-03-02T22:52:56.672Z,10.97
2019-03-02T22:55:25.181Z,9.77
2019-03-02T22:57:53.718Z,10.10
2019-03-02T23:00:29.165Z,10.93
2019-03-02T23:02:56.854Z,10.33
2019-03-02T23:05:25.666Z,9.27
2019-03-02T23:07:54.198Z,9.43
2019-03-02T23:10:22.865Z,11.20
2019-03-02T23:12:51.407Z,11.57
2019-03-02T23:15:24.436Z,11.43
2019-03-02T23:17:52.945Z,10.03
2019-03-02T23:20:21.486Z,9.20
2019-03-02T23:22:50.102Z,9.93
2019-03-02T23:25:18.685Z,9.27
2019-03-02T23:27:47.289Z,9.37
2019-03-02T23:30:24.104Z,10.70
2019-03-02T23:32:53.367Z,8.70
2019-03-02T23:35:21.903Z,9.50
2019-03-02T23:37:50.490Z,8.73
2019-03-02T23:40:21.039Z,9.30
2019-03-02T23:42:49.714Z,11.40
2019-03-02T23:45:20.218Z,7.30
2019-03-02T23:47:48.802Z,9.43
2019-03-02T23:50:17.405Z,7.67
2019-03-02T23:52:46.057Z,8.93
2019-03-02T23:55:15.265Z,6.60
2019-03-02T23:57:44.490Z,7.20
